createdAt,value
2023-02-13T00:02:25.469Z,32.60
2023-02-13T00:04:51.946Z,31.90
2023-02-13T00:07:18.412Z,30.25
2023-02-13T00:09:44.920Z,32.33
2023-02-13T00:12:11.335Z,32.33
2023-02-13T00:14:39.338Z,32.70
2023-02-13T00:17:06.604Z,31.85
2023-02-13T00:19:33.564Z,31.55
2023-02-13T00:22:00.133Z,29.90
2023-02-13T00:24:26.558Z,32.47
2023-02-13T00:26:53.133Z,31.75
2023-02-13T00:29:19.807Z,29.55
2023-02-13T00:31:46.397Z,30.42
2023-02-13T00:34:12.973Z,28.42
2023-02-13T00:36:39.476Z,27.52
2023-02-13T00:39:05.951Z,28.60
2023-02-13T00:41:32.379Z,28.30
2023-02-13T00:43:58.817Z,27.60
2023-02-13T00:46:25.239Z,28.42
2023-02-13T00:48:51.714Z,29.25
2023-02-13T00:51:18.204Z,27.40
2023-02-13T00:53:44.773Z,27.30
2023-02-13T00:56:11.358Z,28.92
2023-02-13T00:58:38.807Z,27.50
2023-02-13T01:01:05.470Z,27.65
2023-02-13T01:03:31.910Z,24.05
2023-02-13T01:05:58.470Z,25.85
2023-02-13T01:08:25.098Z,27.95
2023-02-13T01:10:51.609Z,26.67
2023-02-13T01:13:18.599Z,25.23
2023-02-13T01:15:46.610Z,25.63
2023-02-13T01:18:15.477Z,24.08
2023-02-13T01:20:43.940Z,23.95
2023-02-13T01:23:11.775Z,24.05
2023-02-13T01:25:42.588Z,23.58
2023-02-13T01:28:09.246Z,22.00
2023-02-13T01:30:36.813Z,24.98
2023-02-13T01:33:03.458Z,23.27
2023-02-13T01:35:29.906Z,23.35
2023-02-13T01:37:56.320Z,25.10
2023-02-13T01:40:22.715Z,23.27
2023-02-13T01:42:49.186Z,22.45
2023-02-13T01:45:28.201Z,23.58
2023-02-13T01:47:57.523Z,22.95
2023-02-13T01:50:35.032Z,24.15
2023-02-13T01:53:14.530Z,23.05
2023-02-13T01:56:13.446Z,24.92
2023-02-13T01:58:42.974Z,22.35
2023-02-13T02:01:10.653Z,24.42
2023-02-13T02:03:44.413Z,22.42
2023-02-13T02:06:18.538Z,23.02
2023-02-13T02:08:49.092Z,26.30
2023-02-13T02:11:32.531Z,23.92
2023-02-13T02:14:00.316Z,24.10
2023-02-13T02:16:27.148Z,22.50
2023-02-13T02:18:53.697Z,23.67
2023-02-13T02:21:41.537Z,22.45
2023-02-13T02:24:26.977Z,22.65
2023-02-13T02:26:56.365Z,22.92
2023-02-13T02:29:55.839Z,23.13
2023-02-13T02:35:39.513Z,23.33
2023-02-13T02:38:21.910Z,23.50
2023-02-13T02:41:02.089Z,24.35
2023-02-13T02:43:44.834Z,22.60
2023-02-13T02:46:17.866Z,23.35
2023-02-13T02:49:21.612Z,25.08
2023-02-13T02:52:15.279Z,22.73
2023-02-13T02:55:07.661Z,23.83
2023-02-13T02:58:00.746Z,24.08
2023-02-13T03:00:47.572Z,23.88
2023-02-13T03:03:41.565Z,21.88
2023-02-13T03:06:36.813Z,23.60
2023-02-13T03:09:28.850Z,23.45
2023-02-13T03:12:15.172Z,25.20
2023-02-13T03:14:42.475Z,24.27
2023-02-13T03:17:31.301Z,24.73
2023-02-13T03:20:19.344Z,23.38
2023-02-13T03:23:18.003Z,22.90
2023-02-13T03:26:15.995Z,22.65
2023-02-13T03:29:21.301Z,20.73
2023-02-13T03:32:04.033Z,23.98
2023-02-13T03:34:56.002Z,26.13
2023-02-13T03:37:56.099Z,24.63
2023-02-13T03:41:01.592Z,25.88
2023-02-13T03:43:33.426Z,25.35
2023-02-13T03:46:02.337Z,25.20
2023-02-13T03:48:56.964Z,23.58
2023-02-13T03:51:36.442Z,25.83
2023-02-13T03:54:12.550Z,27.60
2023-02-13T03:57:00.671Z,25.85
2023-02-13T03:59:32.740Z,26.00
2023-02-13T04:02:11.353Z,26.90
2023-02-13T04:04:50.923Z,25.85
2023-02-13T04:07:32.092Z,25.17
2023-02-13T04:10:14.458Z,26.77
2023-02-13T04:12:52.967Z,30.08
2023-02-13T04:15:34.710Z,27.37
2023-02-13T04:18:15.990Z,28.85
2023-02-13T04:20:42.520Z,30.38
2023-02-13T04:23:10.477Z,26.73
2023-02-13T04:25:40.209Z,29.75
2023-02-13T04:28:07.283Z,30.42
2023-02-13T04:30:34.110Z,26.77
2023-02-13T04:33:00.571Z,29.02
2023-02-13T04:35:27.053Z,29.67
2023-02-13T04:37:53.473Z,30.20
2023-02-13T04:40:20.033Z,26.02
2023-02-13T04:42:49.776Z,29.23
2023-02-13T04:45:16.857Z,25.13
2023-02-13T04:47:43.425Z,30.77
2023-02-13T04:50:10.228Z,30.33
2023-02-13T04:52:36.749Z,28.95
2023-02-13T04:55:03.904Z,27.40
2023-02-13T04:57:30.353Z,30.17
2023-02-13T04:59:56.789Z,27.10
2023-02-13T05:02:23.237Z,27.98
2023-02-13T05:04:49.751Z,28.67
2023-02-13T05:07:16.160Z,30.95
2023-02-13T05:09:42.566Z,30.40
2023-02-13T05:12:09.037Z,28.58
2023-02-13T05:14:35.494Z,29.00
2023-02-13T05:17:02.008Z,29.55
2023-02-13T05:19:28.419Z,29.73
2023-02-13T05:22:13.187Z,29.75
2023-02-13T05:24:39.672Z,29.40
2023-02-13T05:27:06.141Z,29.02
2023-02-13T05:29:32.567Z,29.27
2023-02-13T05:31:59.948Z,31.10
2023-02-13T05:34:28.090Z,34.03
2023-02-13T05:36:55.095Z,28.20
2023-02-13T05:39:21.749Z,30.30
2023-02-13T05:41:49.228Z,29.00
2023-02-13T05:44:16.584Z,30.75
2023-02-13T05:46:45.256Z,30.50
2023-02-13T05:49:13.940Z,30.05
2023-02-13T05:51:43.263Z,30.92
2023-02-13T05:54:09.818Z,28.85
2023-02-13T05:56:36.642Z,30.52
2023-02-13T05:59:03.939Z,32.20
2023-02-13T06:01:30.432Z,29.65
2023-02-13T06:03:59.057Z,29.63
2023-02-13T06:06:26.214Z,33.13
2023-02-13T06:08:52.811Z,31.05
2023-02-13T06:11:19.860Z,28.98
2023-02-13T06:13:46.311Z,30.85
2023-02-13T06:16:13.234Z,31.65
2023-02-13T06:18:40.150Z,29.75
2023-02-13T06:21:07.946Z,31.23
2023-02-13T06:23:34.863Z,31.23
2023-02-13T06:26:06.939Z,29.08
2023-02-13T06:28:34.118Z,29.73
2023-02-13T06:31:01.707Z,30.98
2023-02-13T06:33:28.500Z,28.80
2023-02-13T06:35:54.963Z,30.42
2023-02-13T06:38:21.554Z,31.45
2023-02-13T06:40:49.349Z,30.85
2023-02-13T06:43:16.559Z,31.40
2023-02-13T06:45:43.497Z,28.85
2023-02-13T06:48:10.027Z,27.73
2023-02-13T06:50:36.478Z,29.00
2023-02-13T06:53:03.004Z,31.52
2023-02-13T06:55:29.476Z,31.23
2023-02-13T06:57:55.947Z,31.38
2023-02-13T07:00:25.645Z,31.45
2023-02-13T07:02:52.772Z,31.08
2023-02-13T07:05:19.347Z,28.17
2023-02-13T07:07:45.850Z,29.85
2023-02-13T07:10:13.534Z,32.70
2023-02-13T07:12:40.043Z,31.77
2023-02-13T07:15:07.997Z,27.52
2023-02-13T07:17:34.550Z,29.40
2023-02-13T07:20:01.129Z,29.58
2023-02-13T07:22:27.818Z,29.13
2023-02-13T07:25:03.794Z,30.25
2023-02-13T07:27:30.377Z,28.60
2023-02-13T07:29:57.504Z,33.80
2023-02-13T07:32:24.854Z,29.25
2023-02-13T07:35:01.166Z,31.25
2023-02-13T07:37:29.410Z,27.85
2023-02-13T07:39:56.023Z,32.83
2023-02-13T07:42:22.577Z,31.35
2023-02-13T07:44:49.181Z,33.35
2023-02-13T07:47:16.393Z,34.47
2023-02-13T07:49:44.587Z,35.47
2023-02-13T07:52:11.011Z,37.50
2023-02-13T07:54:37.482Z,34.97
2023-02-13T07:57:04.287Z,31.67
2023-02-13T07:59:30.751Z,31.52
2023-02-13T08:01:57.273Z,33.67
2023-02-13T08:04:25.457Z,30.88
2023-02-13T08:06:52.814Z,32.75
2023-02-13T08:09:40.844Z,29.58
2023-02-13T08:12:09.367Z,31.25
2023-02-13T08:14:35.887Z,28.67
2023-02-13T08:17:02.436Z,31.48
2023-02-13T08:19:29.385Z,30.50
2023-02-13T08:21:56.349Z,28.45
2023-02-13T08:24:24.088Z,32.10
2023-02-13T08:26:50.625Z,29.27
2023-02-13T08:29:17.098Z,29.25
2023-02-13T08:31:43.737Z,29.73
2023-02-13T08:34:10.677Z,28.02
2023-02-13T08:36:37.153Z,29.10
2023-02-13T08:39:03.681Z,37.70
2023-02-13T08:41:30.126Z,29.52
2023-02-13T08:43:56.559Z,29.45
2023-02-13T08:46:23.126Z,30.02
2023-02-13T08:48:50.201Z,30.63
2023-02-13T08:51:16.857Z,29.33
2023-02-13T08:53:43.455Z,29.05
2023-02-13T08:56:10.087Z,28.83
2023-02-13T08:58:36.603Z,29.70
2023-02-13T09:01:07.849Z,27.35
2023-02-13T09:03:35.112Z,29.35
2023-02-13T09:06:02.670Z,28.27
2023-02-13T09:08:29.441Z,29.20
2023-02-13T09:11:03.937Z,31.33
2023-02-13T09:13:33.475Z,27.38
2023-02-13T09:16:08.176Z,28.25
2023-02-13T09:18:35.064Z,29.17
2023-02-13T09:21:04.848Z,27.15
2023-02-13T09:23:33.563Z,29.02
2023-02-13T09:26:02.027Z,30.33
2023-02-13T09:28:34.176Z,29.15
2023-02-13T09:31:06.212Z,26.40
2023-02-13T09:33:32.886Z,28.35
2023-02-13T09:35:59.613Z,27.23
2023-02-13T09:38:26.293Z,28.50
2023-02-13T09:41:00.979Z,25.80
2023-02-13T09:43:49.023Z,26.33
2023-02-13T09:46:32.013Z,28.33
2023-02-13T09:49:01.692Z,30.13
2023-02-13T09:51:29.025Z,26.90
2023-02-13T09:54:00.181Z,26.83
2023-02-13T09:56:39.217Z,27.45
2023-02-13T09:59:50.098Z,26.35
2023-02-13T10:02:42.667Z,31.13
2023-02-13T10:05:42.496Z,25.77
2023-02-13T10:08:21.105Z,26.23
2023-02-13T10:10:53.124Z,25.95
2023-02-13T10:13:48.205Z,26.65
2023-02-13T10:16:21.063Z,28.23
2023-02-13T10:18:55.514Z,26.75
2023-02-13T10:21:28.243Z,25.75
2023-02-13T10:24:02.368Z,23.67
2023-02-13T10:26:46.382Z,23.20
2023-02-13T10:29:40.038Z,25.73
2023-02-13T10:32:10.706Z,24.90
2023-02-13T10:34:46.012Z,25.13
2023-02-13T10:37:18.321Z,23.52
2023-02-13T10:39:48.301Z,22.83
2023-02-13T10:42:27.740Z,23.05
2023-02-13T10:45:09.231Z,23.00
2023-02-13T10:48:09.707Z,22.65
2023-02-13T10:51:02.047Z,24.35
2023-02-13T10:53:54.453Z,23.98
2023-02-13T10:56:29.090Z,21.73
2023-02-13T10:59:10.624Z,21.90
2023-02-13T11:01:44.923Z,22.23
2023-02-13T11:04:15.228Z,22.98
2023-02-13T11:06:47.173Z,22.70
2023-02-13T11:09:14.007Z,21.08
2023-02-13T11:11:43.391Z,20.70
2023-02-13T11:14:13.788Z,23.52
2023-02-13T11:17:09.751Z,19.58
2023-02-13T11:19:51.602Z,19.67
2023-02-13T11:22:42.659Z,22.70
2023-02-13T11:25:29.995Z,23.60
2023-02-13T11:28:16.392Z,21.48
2023-02-13T11:30:43.045Z,20.55
2023-02-13T11:33:27.637Z,19.63
2023-02-13T11:36:14.409Z,22.33
2023-02-13T11:38:41.347Z,19.10
2023-02-13T11:41:13.884Z,20.83
2023-02-13T11:44:02.321Z,22.73
2023-02-13T11:46:31.214Z,21.08
2023-02-13T11:49:03.838Z,18.98
2023-02-13T11:51:41.324Z,19.67
2023-02-13T11:54:22.211Z,23.90
2023-02-13T11:57:04.097Z,22.27
2023-02-13T11:59:39.908Z,20.88
2023-02-13T12:02:26.830Z,21.13
2023-02-13T12:04:55.957Z,20.20
2023-02-13T12:07:26.584Z,20.10
2023-02-13T12:10:18.768Z,20.88
2023-02-13T12:13:10.876Z,19.50
2023-02-13T12:15:37.813Z,17.90
2023-02-13T12:18:24.928Z,18.13
2023-02-13T12:21:15.489Z,17.35
2023-02-13T12:23:54.115Z,18.77
2023-02-13T12:26:33.821Z,18.60
2023-02-13T12:29:18.723Z,16.38
2023-02-13T12:31:54.128Z,17.55
2023-02-13T12:34:26.548Z,16.45
2023-02-13T12:36:59.013Z,17.30
2023-02-13T12:39:33.915Z,17.55
2023-02-13T12:42:22.308Z,19.63
2023-02-13T12:45:03.651Z,16.80
2023-02-13T12:47:34.324Z,17.65
2023-02-13T12:50:21.042Z,17.38
2023-02-13T12:53:13.601Z,18.52
2023-02-13T12:56:08.759Z,16.10
2023-02-13T12:59:12.308Z,15.60
2023-02-13T13:02:15.955Z,15.15
2023-02-13T13:05:14.554Z,14.55
2023-02-13T13:08:13.548Z,14.60
2023-02-13T13:11:01.642Z,17.10
2023-02-13T13:13:52.715Z,14.38
2023-02-13T13:16:45.291Z,13.00
2023-02-13T13:19:20.360Z,14.13
2023-02-13T13:22:05.283Z,13.13
2023-02-13T13:24:31.745Z,15.45
2023-02-13T13:27:00.290Z,13.40
2023-02-13T13:29:36.453Z,12.23
2023-02-13T13:32:07.480Z,15.00
2023-02-13T13:34:37.416Z,15.85
2023-02-13T13:37:11.828Z,13.27
2023-02-13T13:40:04.492Z,12.43
2023-02-13T13:42:51.928Z,12.48
2023-02-13T13:45:35.892Z,11.45
2023-02-13T13:48:22.308Z,12.60
2023-02-13T13:50:49.441Z,10.73
2023-02-13T13:53:23.156Z,15.65
2023-02-13T13:55:49.598Z,15.55
2023-02-13T13:58:49.436Z,10.35
2023-02-13T14:08:29.157Z,11.07
2023-02-13T14:11:02.792Z,9.80
2023-02-13T14:13:36.557Z,10.27
2023-02-13T14:16:05.360Z,10.25
2023-02-13T14:18:32.603Z,10.68
2023-02-13T14:21:01.880Z,10.23
2023-02-13T14:23:50.602Z,9.38
2023-02-13T14:26:17.106Z,10.47
2023-02-13T14:28:49.451Z,10.25
2023-02-13T14:31:25.344Z,12.15
2023-02-13T14:34:04.859Z,6.82
2023-02-13T14:36:34.299Z,8.52
2023-02-13T14:41:56.799Z,10.88
2023-02-13T14:44:47.113Z,13.20
2023-02-13T14:47:42.896Z,9.80
2023-02-13T14:50:19.678Z,8.20
2023-02-13T14:52:47.854Z,11.30
2023-02-13T14:55:33.689Z,8.23
2023-02-13T14:58:29.400Z,9.70
2023-02-13T15:01:02.447Z,10.25
2023-02-13T15:03:44.289Z,14.07
2023-02-13T15:06:27.979Z,8.63
2023-02-13T15:08:56.184Z,7.72
2023-02-13T15:11:42.757Z,9.02
2023-02-13T15:14:16.009Z,12.25
2023-02-13T15:16:43.629Z,10.27
2023-02-13T15:19:19.660Z,10.13
2023-02-13T15:21:56.608Z,8.07
2023-02-13T15:24:24.037Z,7.97
2023-02-13T15:26:55.043Z,10.63
2023-02-13T15:29:29.181Z,8.73
2023-02-13T15:31:58.454Z,13.63
2023-02-13T15:34:34.415Z,11.05
2023-02-13T15:37:01.019Z,8.60
2023-02-13T15:39:32.330Z,8.55
2023-02-13T15:42:01.097Z,13.98
2023-02-13T15:44:29.521Z,9.18
2023-02-13T15:47:03.141Z,10.63
2023-02-13T15:49:39.254Z,13.48
2023-02-13T15:52:18.261Z,9.57
2023-02-13T15:54:53.718Z,9.63
2023-02-13T15:57:21.685Z,13.48
2023-02-13T15:59:49.522Z,14.43
2023-02-13T16:02:22.267Z,14.43
2023-02-13T16:04:52.410Z,12.20
2023-02-13T16:07:19.072Z,13.88
2023-02-13T16:09:45.600Z,14.20
2023-02-13T16:12:20.659Z,9.98
2023-02-13T16:15:02.920Z,9.63
2023-02-13T16:17:33.528Z,11.13
2023-02-13T16:20:06.702Z,11.57
2023-02-13T16:22:51.522Z,12.63
2023-02-13T16:25:32.852Z,11.02
2023-02-13T16:28:02.787Z,13.70
2023-02-13T16:30:40.763Z,11.65
2023-02-13T16:33:16.195Z,10.75
2023-02-13T16:35:55.325Z,12.10
2023-02-13T16:38:43.670Z,9.73
2023-02-13T16:41:19.266Z,13.25
2023-02-13T16:43:47.057Z,15.90
2023-02-13T16:46:19.491Z,12.25
2023-02-13T16:48:57.437Z,13.07
2023-02-13T16:51:29.719Z,8.25
2023-02-13T16:54:01.920Z,10.63
2023-02-13T16:56:36.249Z,11.05
2023-02-13T16:59:41.050Z,13.02
2023-02-13T17:02:40.786Z,11.77
2023-02-13T17:05:07.115Z,10.80
2023-02-13T17:07:43.604Z,9.18
2023-02-13T17:10:20.771Z,13.85
2023-02-13T17:12:48.937Z,15.40
2023-02-13T17:15:18.368Z,13.43
2023-02-13T17:17:45.554Z,13.27
2023-02-13T17:20:40.313Z,14.07
2023-02-13T17:23:07.978Z,16.27
2023-02-13T17:25:37.366Z,14.85
2023-02-13T17:30:37.974Z,14.80
2023-02-13T17:33:07.892Z,10.65
2023-02-13T17:35:35.325Z,12.55
2023-02-13T17:38:01.844Z,13.73
2023-02-13T17:40:30.143Z,14.90
2023-02-13T17:42:58.132Z,15.07
2023-02-13T17:45:27.548Z,12.95
2023-02-13T17:50:21.321Z,12.85
2023-02-13T17:52:49.039Z,12.43
2023-02-13T17:55:27.308Z,16.35
2023-02-13T17:57:58.697Z,13.05
2023-02-13T18:00:28.207Z,14.20
2023-02-13T18:05:21.891Z,15.13
2023-02-13T18:07:48.896Z,15.25
2023-02-13T18:10:17.075Z,17.02
2023-02-13T18:12:44.272Z,15.55
2023-02-13T18:15:11.846Z,15.18
2023-02-13T18:17:38.616Z,14.07
2023-02-13T18:20:06.633Z,17.40
2023-02-13T18:22:33.216Z,17.55
2023-02-13T18:25:01.251Z,20.63
2023-02-13T18:27:28.253Z,15.65
2023-02-13T18:29:56.145Z,15.40
2023-02-13T18:32:23.279Z,18.77
2023-02-13T18:34:50.171Z,19.70
2023-02-13T18:37:18.199Z,18.92
2023-02-13T18:39:44.933Z,25.98
2023-02-13T18:42:13.167Z,24.48
2023-02-13T18:44:40.720Z,20.42
2023-02-13T18:47:07.750Z,20.77
2023-02-13T18:49:34.264Z,19.20
2023-02-13T18:52:01.513Z,19.10
2023-02-13T18:54:28.547Z,16.48
2023-02-13T18:56:55.017Z,15.80
2023-02-13T18:59:22.977Z,15.07
2023-02-13T19:01:49.989Z,14.82
2023-02-13T19:04:16.545Z,13.07
2023-02-13T19:06:44.158Z,14.40
2023-02-13T19:09:10.810Z,14.23
2023-02-13T19:11:38.772Z,15.45
2023-02-13T19:14:06.573Z,13.23
2023-02-13T19:16:34.996Z,16.42
2023-02-13T19:19:04.447Z,15.02
2023-02-13T19:23:58.594Z,14.48
2023-02-13T19:26:26.668Z,14.02
2023-02-13T19:28:54.031Z,16.02
2023-02-13T19:31:28.401Z,15.15
2023-02-13T19:33:55.257Z,17.20
2023-02-13T19:36:24.070Z,16.40
2023-02-13T19:38:55.632Z,15.27
2023-02-13T19:41:22.457Z,17.45
2023-02-13T19:43:53.557Z,18.40
2023-02-13T19:46:23.109Z,16.88
2023-02-13T19:48:50.298Z,18.02
2023-02-13T19:51:20.749Z,17.85
2023-02-13T19:53:47.771Z,20.15
2023-02-13T19:56:14.615Z,16.05
2023-02-13T19:58:43.085Z,18.67
2023-02-13T20:01:13.218Z,17.48
2023-02-13T20:03:40.626Z,17.52
2023-02-13T20:06:10.606Z,15.88
2023-02-13T20:08:37.775Z,18.50
2023-02-13T20:11:07.824Z,16.55
2023-02-13T20:13:34.451Z,16.77
2023-02-13T20:16:19.775Z,17.90
2023-02-13T20:18:46.264Z,15.68
2023-02-13T20:21:15.172Z,15.25
2023-02-13T20:23:42.679Z,17.38
2023-02-13T20:26:13.662Z,14.88
2023-02-13T20:28:41.769Z,16.33
2023-02-13T20:31:10.879Z,16.70
2023-02-13T20:33:39.040Z,17.48
2023-02-13T20:36:20.790Z,19.48
2023-02-13T20:38:48.382Z,16.25
2023-02-13T20:41:17.279Z,14.77
2023-02-13T20:43:44.354Z,18.42
2023-02-13T20:46:12.205Z,16.70
2023-02-13T20:48:40.109Z,18.63
2023-02-13T20:51:09.151Z,16.95
2023-02-13T20:53:35.549Z,19.50
2023-02-13T20:56:07.524Z,16.23
2023-02-13T20:58:34.481Z,17.10
2023-02-13T21:01:01.505Z,18.38
2023-02-13T21:03:28.322Z,17.30
2023-02-13T21:05:54.830Z,18.27
2023-02-13T21:08:27.519Z,18.85
2023-02-13T21:10:54.116Z,18.02
2023-02-13T21:13:20.999Z,17.00
2023-02-13T21:15:49.613Z,18.98
2023-02-13T21:18:16.082Z,17.87
2023-02-13T21:20:42.603Z,18.17
2023-02-13T21:23:09.063Z,17.73
2023-02-13T21:25:35.638Z,17.27
2023-02-13T21:28:02.154Z,17.70
2023-02-13T21:30:28.615Z,17.67
2023-02-13T21:32:55.104Z,17.63
2023-02-13T21:35:21.583Z,24.83
2023-02-13T21:37:50.182Z,19.15
2023-02-13T21:40:16.877Z,18.45
2023-02-13T21:42:43.322Z,20.08
2023-02-13T21:45:11.391Z,18.08
2023-02-13T21:47:38.271Z,21.38
2023-02-13T21:50:06.160Z,20.85
2023-02-13T21:52:32.626Z,19.52
2023-02-13T21:54:59.128Z,19.17
2023-02-13T21:57:25.730Z,20.30
2023-02-13T21:59:52.143Z,22.80
2023-02-13T22:02:19.914Z,22.05
2023-02-13T22:04:46.419Z,19.50
2023-02-13T22:07:12.880Z,23.08
2023-02-13T22:09:39.393Z,21.10
2023-02-13T22:12:05.909Z,22.75
2023-02-13T22:14:32.349Z,21.15
2023-02-13T22:16:58.944Z,19.50
2023-02-13T22:19:25.420Z,19.48
2023-02-13T22:21:51.861Z,20.15
2023-02-13T22:24:18.342Z,21.38
2023-02-13T22:26:45.204Z,23.55
2023-02-13T22:29:14.868Z,21.17
2023-02-13T22:31:42.317Z,19.27
2023-02-13T22:34:12.183Z,19.15
2023-02-13T22:36:38.840Z,19.20
2023-02-13T22:39:06.004Z,20.15
2023-02-13T22:41:32.485Z,20.90
2023-02-13T22:43:59.002Z,20.38
2023-02-13T22:46:31.603Z,18.65
2023-02-13T22:48:59.218Z,19.90
2023-02-13T22:51:29.380Z,19.15
2023-02-13T22:53:57.562Z,20.38
2023-02-13T22:56:25.605Z,20.10
2023-02-13T22:58:52.285Z,20.95
2023-02-13T23:01:20.685Z,21.08
2023-02-13T23:03:47.563Z,19.20
2023-02-13T23:06:14.805Z,22.73
2023-02-13T23:08:41.775Z,19.33
2023-02-13T23:11:29.597Z,19.98
2023-02-13T23:13:56.449Z,23.00
2023-02-13T23:16:23.101Z,16.70
2023-02-13T23:18:57.219Z,18.00
2023-02-13T23:21:24.756Z,18.33
2023-02-13T23:23:51.711Z,18.35
2023-02-13T23:26:19.074Z,20.15
2023-02-13T23:28:45.692Z,21.98
2023-02-13T23:31:12.306Z,19.55
2023-02-13T23:33:38.849Z,20.85
2023-02-13T23:36:05.727Z,22.08
2023-02-13T23:38:32.229Z,19.50
2023-02-13T23:41:06.396Z,18.27
2023-02-13T23:43:32.933Z,20.15
2023-02-13T23:45:59.484Z,18.17
2023-02-13T23:48:25.922Z,22.73
2023-02-13T23:50:53.191Z,20.02
2023-02-13T23:53:19.709Z,18.48
2023-02-13T23:55:46.280Z,22.05
2023-02-13T23:58:12.756Z,24.40
